sensor_id;sensor_type;location;lat;lon;timestamp;P1;durP1;ratioP1;P2;durP2;ratioP2
76714;SDS011;65644;44.990;20.288;2022-12-11T00:00:03;4.18;;;2.53;;
76714;SDS011;65644;44.990;20.288;2022-12-11T00:02:29;3.65;;;2.60;;
76714;SDS011;65644;44.990;20.288;2022-12-11T00:04:55;5.63;;;4.72;;
76714;SDS011;65644;44.990;20.288;2022-12-11T00:07:21;5.03;;;4.47;;
76714;SDS011;65644;44.990;20.288;2022-12-11T00:09:47;3.75;;;3.25;;
76714;SDS011;65644;44.990;20.288;2022-12-11T00:12:13;3.50;;;3.00;;
76714;SDS011;65644;44.990;20.288;2022-12-11T00:14:39;2.35;;;2.15;;
76714;SDS011;65644;44.990;20.288;2022-12-11T00:17:05;5.72;;;3.35;;
76714;SDS011;65644;44.990;20.288;2022-12-11T00:19:31;3.30;;;2.72;;
76714;SDS011;65644;44.990;20.288;2022-12-11T00:21:57;6.35;;;3.35;;
76714;SDS011;65644;44.990;20.288;2022-12-11T00:24:23;6.47;;;3.90;;
76714;SDS011;65644;44.990;20.288;2022-12-11T00:26:49;3.92;;;2.50;;
76714;SDS011;65644;44.990;20.288;2022-12-11T00:29:15;2.67;;;2.30;;
76714;SDS011;65644;44.990;20.288;2022-12-11T00:31:41;4.78;;;3.30;;
76714;SDS011;65644;44.990;20.288;2022-12-11T00:34:08;3.45;;;2.40;;
76714;SDS011;65644;44.990;20.288;2022-12-11T00:36:36;1.92;;;1.65;;
76714;SDS011;65644;44.990;20.288;2022-12-11T00:39:02;2.78;;;2.22;;
76714;SDS011;65644;44.990;20.288;2022-12-11T00:41:28;3.35;;;2.75;;
76714;SDS011;65644;44.990;20.288;2022-12-11T00:43:54;3.72;;;2.55;;
76714;SDS011;65644;44.990;20.288;2022-12-11T00:46:20;5.05;;;3.00;;
76714;SDS011;65644;44.990;20.288;2022-12-11T00:48:46;4.07;;;3.25;;
76714;SDS011;65644;44.990;20.288;2022-12-11T00:51:14;3.72;;;2.88;;
76714;SDS011;65644;44.990;20.288;2022-12-11T00:53:40;3.75;;;2.95;;
76714;SDS011;65644;44.990;20.288;2022-12-11T00:56:10;3.63;;;2.60;;
76714;SDS011;65644;44.990;20.288;2022-12-11T00:58:36;5.00;;;2.92;;
76714;SDS011;65644;44.990;20.288;2022-12-11T01:01:06;2.88;;;2.53;;
76714;SDS011;65644;44.990;20.288;2022-12-11T01:03:32;3.85;;;2.80;;
76714;SDS011;65644;44.990;20.288;2022-12-11T01:05:59;4.68;;;2.60;;
76714;SDS011;65644;44.990;20.288;2022-12-11T01:08:25;3.22;;;2.42;;
76714;SDS011;65644;44.990;20.288;2022-12-11T01:10:51;3.72;;;2.50;;
76714;SDS011;65644;44.990;20.288;2022-12-11T01:13:25;2.77;;;2.30;;
76714;SDS011;65644;44.990;20.288;2022-12-11T01:15:51;2.08;;;1.90;;
76714;SDS011;65644;44.990;20.288;2022-12-11T01:18:17;4.30;;;2.55;;
76714;SDS011;65644;44.990;20.288;2022-12-11T01:20:43;3.05;;;2.75;;
76714;SDS011;65644;44.990;20.288;2022-12-11T01:23:10;3.55;;;2.70;;
76714;SDS011;65644;44.990;20.288;2022-12-11T01:25:37;3.30;;;3.00;;
76714;SDS011;65644;44.990;20.288;2022-12-11T01:28:03;2.80;;;2.60;;
76714;SDS011;65644;44.990;20.288;2022-12-11T01:30:29;4.10;;;2.47;;
76714;SDS011;65644;44.990;20.288;2022-12-11T01:32:55;3.17;;;2.63;;
76714;SDS011;65644;44.990;20.288;2022-12-11T01:35:21;3.33;;;2.40;;
76714;SDS011;65644;44.990;20.288;2022-12-11T01:37:47;3.20;;;2.73;;
76714;SDS011;65644;44.990;20.288;2022-12-11T01:40:14;2.58;;;2.33;;
76714;SDS011;65644;44.990;20.288;2022-12-11T01:42:41;2.97;;;1.65;;
76714;SDS011;65644;44.990;20.288;2022-12-11T01:47:58;3.13;;;2.42;;
76714;SDS011;65644;44.990;20.288;2022-12-11T01:50:25;2.73;;;2.37;;
76714;SDS011;65644;44.990;20.288;2022-12-11T01:52:52;4.07;;;2.65;;
76714;SDS011;65644;44.990;20.288;2022-12-11T01:55:18;3.58;;;2.72;;
76714;SDS011;65644;44.990;20.288;2022-12-11T01:57:46;4.55;;;2.50;;
76714;SDS011;65644;44.990;20.288;2022-12-11T02:00:13;3.97;;;2.50;;
76714;SDS011;65644;44.990;20.288;2022-12-11T02:02:39;2.70;;;2.40;;
76714;SDS011;65644;44.990;20.288;2022-12-11T02:05:06;2.17;;;1.97;;
76714;SDS011;65644;44.990;20.288;2022-12-11T02:07:44;1.97;;;1.60;;
76714;SDS011;65644;44.990;20.288;2022-12-11T02:10:11;2.93;;;1.97;;
76714;SDS011;65644;44.990;20.288;2022-12-11T02:12:42;1.67;;;1.57;;
76714;SDS011;65644;44.990;20.288;2022-12-11T02:18:18;1.90;;;1.80;;
76714;SDS011;65644;44.990;20.288;2022-12-11T02:20:52;2.00;;;1.80;;
76714;SDS011;65644;44.990;20.288;2022-12-11T02:33:49;2.00;;;1.80;;
76714;SDS011;65644;44.990;20.288;2022-12-11T02:36:17;1.83;;;1.73;;
76714;SDS011;65644;44.990;20.288;2022-12-11T02:38:46;2.10;;;1.87;;
76714;SDS011;65644;44.990;20.288;2022-12-11T02:41:15;2.67;;;2.20;;
76714;SDS011;65644;44.990;20.288;2022-12-11T02:43:42;2.27;;;1.90;;
76714;SDS011;65644;44.990;20.288;2022-12-11T02:46:08;2.67;;;1.73;;
76714;SDS011;65644;44.990;20.288;2022-12-11T02:48:35;4.90;;;2.10;;
76714;SDS011;65644;44.990;20.288;2022-12-11T02:51:02;2.90;;;2.30;;
76714;SDS011;65644;44.990;20.288;2022-12-11T02:53:30;2.50;;;2.20;;
76714;SDS011;65644;44.990;20.288;2022-12-11T02:56:01;2.30;;;2.10;;
76714;SDS011;65644;44.990;20.288;2022-12-11T02:58:31;4.30;;;1.90;;
76714;SDS011;65644;44.990;20.288;2022-12-11T03:00:58;2.30;;;2.17;;
76714;SDS011;65644;44.990;20.288;2022-12-11T03:03:24;3.37;;;2.23;;
76714;SDS011;65644;44.990;20.288;2022-12-11T03:05:50;2.97;;;2.70;;
76714;SDS011;65644;44.990;20.288;2022-12-11T03:08:17;2.90;;;2.53;;
76714;SDS011;65644;44.990;20.288;2022-12-11T03:10:43;3.03;;;2.73;;
76714;SDS011;65644;44.990;20.288;2022-12-11T03:13:10;2.87;;;2.67;;
76714;SDS011;65644;44.990;20.288;2022-12-11T03:15:40;3.73;;;2.83;;
76714;SDS011;65644;44.990;20.288;2022-12-11T03:18:10;4.37;;;3.53;;
76714;SDS011;65644;44.990;20.288;2022-12-11T03:20:40;3.63;;;3.10;;
76714;SDS011;65644;44.990;20.288;2022-12-11T03:28:04;5.87;;;3.67;;
76714;SDS011;65644;44.990;20.288;2022-12-11T03:30:34;4.03;;;3.65;;
76714;SDS011;65644;44.990;20.288;2022-12-11T03:33:02;3.90;;;3.50;;
76714;SDS011;65644;44.990;20.288;2022-12-11T03:35:43;5.13;;;3.73;;
76714;SDS011;65644;44.990;20.288;2022-12-11T03:38:10;4.77;;;4.23;;
76714;SDS011;65644;44.990;20.288;2022-12-11T03:40:39;4.93;;;4.43;;
76714;SDS011;65644;44.990;20.288;2022-12-11T03:43:06;4.80;;;4.13;;
76714;SDS011;65644;44.990;20.288;2022-12-11T03:45:32;4.77;;;4.30;;
76714;SDS011;65644;44.990;20.288;2022-12-11T03:47:59;5.10;;;4.60;;
76714;SDS011;65644;44.990;20.288;2022-12-11T03:50:27;4.30;;;3.90;;
76714;SDS011;65644;44.990;20.288;2022-12-11T03:52:55;5.97;;;4.47;;
76714;SDS011;65644;44.990;20.288;2022-12-11T03:55:22;4.50;;;3.87;;
76714;SDS011;65644;44.990;20.288;2022-12-11T03:57:48;5.33;;;4.83;;
76714;SDS011;65644;44.990;20.288;2022-12-11T04:00:15;4.90;;;4.40;;
76714;SDS011;65644;44.990;20.288;2022-12-11T04:02:42;5.33;;;4.83;;
76714;SDS011;65644;44.990;20.288;2022-12-11T04:05:09;6.70;;;5.07;;
76714;SDS011;65644;44.990;20.288;2022-12-11T04:07:35;5.80;;;5.03;;
76714;SDS011;65644;44.990;20.288;2022-12-11T04:10:02;5.77;;;5.17;;
76714;SDS011;65644;44.990;20.288;2022-12-11T04:12:28;6.20;;;5.17;;
76714;SDS011;65644;44.990;20.288;2022-12-11T04:14:54;5.20;;;4.70;;
76714;SDS011;65644;44.990;20.288;2022-12-11T04:17:29;5.90;;;5.30;;
76714;SDS011;65644;44.990;20.288;2022-12-11T04:20:15;7.03;;;5.40;;
76714;SDS011;65644;44.990;20.288;2022-12-11T04:23:02;6.13;;;5.35;;
76714;SDS011;65644;44.990;20.288;2022-12-11T04:25:47;6.33;;;5.43;;
76714;SDS011;65644;44.990;20.288;2022-12-11T04:28:13;6.27;;;5.67;;
76714;SDS011;65644;44.990;20.288;2022-12-11T04:30:39;6.77;;;5.80;;
76714;SDS011;65644;44.990;20.288;2022-12-11T04:33:05;6.83;;;5.43;;
76714;SDS011;65644;44.990;20.288;2022-12-11T04:35:31;5.73;;;5.20;;
76714;SDS011;65644;44.990;20.288;2022-12-11T04:37:57;5.33;;;4.77;;
76714;SDS011;65644;44.990;20.288;2022-12-11T04:40:25;5.17;;;4.67;;
76714;SDS011;65644;44.990;20.288;2022-12-11T04:42:51;4.87;;;4.40;;
76714;SDS011;65644;44.990;20.288;2022-12-11T04:45:17;5.20;;;4.67;;
76714;SDS011;65644;44.990;20.288;2022-12-11T04:47:43;5.57;;;4.73;;
76714;SDS011;65644;44.990;20.288;2022-12-11T04:50:10;6.70;;;5.20;;
76714;SDS011;65644;44.990;20.288;2022-12-11T04:52:36;5.77;;;4.50;;
76714;SDS011;65644;44.990;20.288;2022-12-11T04:55:06;6.37;;;5.10;;
76714;SDS011;65644;44.990;20.288;2022-12-11T04:57:32;6.00;;;4.63;;
76714;SDS011;65644;44.990;20.288;2022-12-11T04:59:58;4.30;;;3.90;;
76714;SDS011;65644;44.990;20.288;2022-12-11T05:02:24;5.07;;;4.57;;
76714;SDS011;65644;44.990;20.288;2022-12-11T05:04:50;5.50;;;4.93;;
76714;SDS011;65644;44.990;20.288;2022-12-11T05:07:17;4.27;;;3.87;;
76714;SDS011;65644;44.990;20.288;2022-12-11T05:09:43;4.37;;;3.97;;
76714;SDS011;65644;44.990;20.288;2022-12-11T05:12:09;4.80;;;4.30;;
76714;SDS011;65644;44.990;20.288;2022-12-11T05:14:35;5.43;;;4.27;;
76714;SDS011;65644;44.990;20.288;2022-12-11T05:17:01;5.40;;;4.47;;
76714;SDS011;65644;44.990;20.288;2022-12-11T05:19:27;5.80;;;4.70;;
76714;SDS011;65644;44.990;20.288;2022-12-11T05:21:53;5.00;;;4.30;;
76714;SDS011;65644;44.990;20.288;2022-12-11T05:24:19;5.03;;;4.43;;
76714;SDS011;65644;44.990;20.288;2022-12-11T05:26:45;5.37;;;4.63;;
76714;SDS011;65644;44.990;20.288;2022-12-11T05:29:11;6.27;;;4.97;;
76714;SDS011;65644;44.990;20.288;2022-12-11T05:31:37;5.50;;;4.40;;
76714;SDS011;65644;44.990;20.288;2022-12-11T05:34:03;5.07;;;4.57;;
76714;SDS011;65644;44.990;20.288;2022-12-11T05:36:30;6.20;;;5.60;;
76714;SDS011;65644;44.990;20.288;2022-12-11T05:38:57;10.27;;;7.30;;
76714;SDS011;65644;44.990;20.288;2022-12-11T05:41:24;8.80;;;6.73;;
76714;SDS011;65644;44.990;20.288;2022-12-11T05:43:51;7.90;;;6.50;;
76714;SDS011;65644;44.990;20.288;2022-12-11T05:46:18;9.30;;;6.47;;
76714;SDS011;65644;44.990;20.288;2022-12-11T05:48:45;8.63;;;6.87;;
76714;SDS011;65644;44.990;20.288;2022-12-11T05:51:12;9.93;;;7.37;;
76714;SDS011;65644;44.990;20.288;2022-12-11T05:53:38;9.70;;;7.03;;
76714;SDS011;65644;44.990;20.288;2022-12-11T05:56:10;10.43;;;7.70;;
76714;SDS011;65644;44.990;20.288;2022-12-11T05:58:37;13.53;;;8.90;;
76714;SDS011;65644;44.990;20.288;2022-12-11T06:01:07;10.23;;;7.87;;
76714;SDS011;65644;44.990;20.288;2022-12-11T06:03:33;9.80;;;7.87;;
76714;SDS011;65644;44.990;20.288;2022-12-11T06:06:02;11.83;;;9.00;;
76714;SDS011;65644;44.990;20.288;2022-12-11T06:08:29;11.27;;;8.60;;
76714;SDS011;65644;44.990;20.288;2022-12-11T06:10:55;8.73;;;6.90;;
76714;SDS011;65644;44.990;20.288;2022-12-11T06:13:21;13.80;;;9.30;;
76714;SDS011;65644;44.990;20.288;2022-12-11T06:15:47;11.23;;;8.33;;
76714;SDS011;65644;44.990;20.288;2022-12-11T06:18:13;11.17;;;7.97;;
76714;SDS011;65644;44.990;20.288;2022-12-11T06:20:39;12.77;;;8.97;;
76714;SDS011;65644;44.990;20.288;2022-12-11T06:23:05;11.07;;;8.33;;
76714;SDS011;65644;44.990;20.288;2022-12-11T06:25:31;12.70;;;10.80;;
76714;SDS011;65644;44.990;20.288;2022-12-11T06:27:58;13.67;;;10.27;;
76714;SDS011;65644;44.990;20.288;2022-12-11T06:30:24;16.40;;;10.53;;
76714;SDS011;65644;44.990;20.288;2022-12-11T06:32:50;13.90;;;10.77;;
76714;SDS011;65644;44.990;20.288;2022-12-11T06:35:16;16.60;;;11.33;;
76714;SDS011;65644;44.990;20.288;2022-12-11T06:37:42;14.80;;;10.03;;
76714;SDS011;65644;44.990;20.288;2022-12-11T06:40:08;14.87;;;11.03;;
76714;SDS011;65644;44.990;20.288;2022-12-11T06:42:36;21.23;;;13.67;;
76714;SDS011;65644;44.990;20.288;2022-12-11T06:45:03;12.83;;;9.50;;
76714;SDS011;65644;44.990;20.288;2022-12-11T06:47:29;16.40;;;11.50;;
76714;SDS011;65644;44.990;20.288;2022-12-11T06:49:55;16.67;;;11.97;;
76714;SDS011;65644;44.990;20.288;2022-12-11T06:52:22;29.50;;;16.30;;
76714;SDS011;65644;44.990;20.288;2022-12-11T06:54:48;15.90;;;11.33;;
76714;SDS011;65644;44.990;20.288;2022-12-11T06:57:14;13.30;;;10.10;;
76714;SDS011;65644;44.990;20.288;2022-12-11T06:59:41;15.87;;;10.40;;
76714;SDS011;65644;44.990;20.288;2022-12-11T07:02:08;14.17;;;10.33;;
76714;SDS011;65644;44.990;20.288;2022-12-11T07:04:35;15.17;;;10.43;;
76714;SDS011;65644;44.990;20.288;2022-12-11T07:07:01;14.63;;;10.30;;
76714;SDS011;65644;44.990;20.288;2022-12-11T07:09:27;15.80;;;10.67;;
76714;SDS011;65644;44.990;20.288;2022-12-11T07:11:53;15.40;;;11.47;;
76714;SDS011;65644;44.990;20.288;2022-12-11T07:14:19;16.50;;;11.97;;
76714;SDS011;65644;44.990;20.288;2022-12-11T07:16:45;18.47;;;12.53;;
76714;SDS011;65644;44.990;20.288;2022-12-11T07:19:11;18.10;;;12.90;;
76714;SDS011;65644;44.990;20.288;2022-12-11T07:21:37;22.97;;;12.90;;
76714;SDS011;65644;44.990;20.288;2022-12-11T07:24:03;17.07;;;12.50;;
76714;SDS011;65644;44.990;20.288;2022-12-11T07:26:29;18.43;;;12.77;;
76714;SDS011;65644;44.990;20.288;2022-12-11T07:28:56;18.00;;;12.60;;
76714;SDS011;65644;44.990;20.288;2022-12-11T07:31:24;19.20;;;13.60;;
76714;SDS011;65644;44.990;20.288;2022-12-11T07:33:57;17.83;;;12.37;;
76714;SDS011;65644;44.990;20.288;2022-12-11T07:36:23;19.30;;;13.23;;
76714;SDS011;65644;44.990;20.288;2022-12-11T07:38:50;19.10;;;13.00;;
76714;SDS011;65644;44.990;20.288;2022-12-11T07:41:16;18.10;;;12.50;;
76714;SDS011;65644;44.990;20.288;2022-12-11T07:43:42;18.00;;;12.70;;
76714;SDS011;65644;44.990;20.288;2022-12-11T07:46:10;20.33;;;14.63;;
76714;SDS011;65644;44.990;20.288;2022-12-11T07:48:38;19.30;;;13.67;;
76714;SDS011;65644;44.990;20.288;2022-12-11T07:53:36;18.47;;;13.67;;
76714;SDS011;65644;44.990;20.288;2022-12-11T07:56:02;20.67;;;14.07;;
76714;SDS011;65644;44.990;20.288;2022-12-11T07:58:28;19.80;;;14.17;;
76714;SDS011;65644;44.990;20.288;2022-12-11T08:00:54;21.97;;;15.10;;
76714;SDS011;65644;44.990;20.288;2022-12-11T08:03:22;22.60;;;14.57;;
76714;SDS011;65644;44.990;20.288;2022-12-11T08:05:48;25.27;;;15.83;;
76714;SDS011;65644;44.990;20.288;2022-12-11T08:08:15;27.43;;;16.83;;
76714;SDS011;65644;44.990;20.288;2022-12-11T08:10:41;27.27;;;17.07;;
76714;SDS011;65644;44.990;20.288;2022-12-11T08:13:07;27.97;;;16.77;;
76714;SDS011;65644;44.990;20.288;2022-12-11T08:15:33;24.07;;;15.97;;
76714;SDS011;65644;44.990;20.288;2022-12-11T08:18:00;24.60;;;15.83;;
76714;SDS011;65644;44.990;20.288;2022-12-11T08:20:26;30.93;;;19.53;;
76714;SDS011;65644;44.990;20.288;2022-12-11T08:22:52;34.03;;;19.60;;
76714;SDS011;65644;44.990;20.288;2022-12-11T08:25:18;23.60;;;15.83;;
76714;SDS011;65644;44.990;20.288;2022-12-11T08:27:44;29.43;;;19.27;;
76714;SDS011;65644;44.990;20.288;2022-12-11T08:30:10;31.83;;;19.30;;
76714;SDS011;65644;44.990;20.288;2022-12-11T08:32:36;25.10;;;16.60;;
76714;SDS011;65644;44.990;20.288;2022-12-11T08:35:02;24.77;;;16.60;;
76714;SDS011;65644;44.990;20.288;2022-12-11T08:37:28;26.90;;;17.67;;
76714;SDS011;65644;44.990;20.288;2022-12-11T08:39:54;30.13;;;19.07;;
76714;SDS011;65644;44.990;20.288;2022-12-11T08:42:20;25.70;;;17.30;;
76714;SDS011;65644;44.990;20.288;2022-12-11T08:44:46;32.57;;;19.90;;
76714;SDS011;65644;44.990;20.288;2022-12-11T08:47:12;29.13;;;17.33;;
76714;SDS011;65644;44.990;20.288;2022-12-11T08:49:39;26.60;;;17.00;;
76714;SDS011;65644;44.990;20.288;2022-12-11T08:52:05;31.40;;;20.43;;
76714;SDS011;65644;44.990;20.288;2022-12-11T08:54:31;27.20;;;17.93;;
76714;SDS011;65644;44.990;20.288;2022-12-11T08:56:57;41.30;;;23.47;;
76714;SDS011;65644;44.990;20.288;2022-12-11T08:59:24;30.53;;;21.03;;
76714;SDS011;65644;44.990;20.288;2022-12-11T09:01:50;30.43;;;19.30;;
76714;SDS011;65644;44.990;20.288;2022-12-11T09:04:17;28.37;;;16.27;;
76714;SDS011;65644;44.990;20.288;2022-12-11T09:06:44;25.83;;;16.43;;
76714;SDS011;65644;44.990;20.288;2022-12-11T09:09:10;32.40;;;19.73;;
76714;SDS011;65644;44.990;20.288;2022-12-11T09:11:36;25.10;;;16.73;;
76714;SDS011;65644;44.990;20.288;2022-12-11T09:14:03;26.43;;;17.20;;
76714;SDS011;65644;44.990;20.288;2022-12-11T09:16:29;26.63;;;16.93;;
76714;SDS011;65644;44.990;20.288;2022-12-11T09:18:56;31.97;;;20.90;;
76714;SDS011;65644;44.990;20.288;2022-12-11T09:21:26;24.87;;;18.10;;
76714;SDS011;65644;44.990;20.288;2022-12-11T09:23:54;36.00;;;21.20;;
76714;SDS011;65644;44.990;20.288;2022-12-11T09:26:20;27.37;;;17.03;;
76714;SDS011;65644;44.990;20.288;2022-12-11T09:28:46;24.57;;;16.47;;
76714;SDS011;65644;44.990;20.288;2022-12-11T09:31:25;25.47;;;16.40;;
76714;SDS011;65644;44.990;20.288;2022-12-11T09:33:53;36.40;;;20.07;;
76714;SDS011;65644;44.990;20.288;2022-12-11T09:36:19;32.53;;;19.27;;
76714;SDS011;65644;44.990;20.288;2022-12-11T09:38:45;20.20;;;13.77;;
76714;SDS011;65644;44.990;20.288;2022-12-11T09:43:42;18.87;;;12.77;;
76714;SDS011;65644;44.990;20.288;2022-12-11T09:46:10;22.80;;;14.17;;
76714;SDS011;65644;44.990;20.288;2022-12-11T09:48:37;17.30;;;11.77;;
76714;SDS011;65644;44.990;20.288;2022-12-11T09:51:07;22.43;;;13.50;;
76714;SDS011;65644;44.990;20.288;2022-12-11T09:53:35;23.07;;;13.83;;
76714;SDS011;65644;44.990;20.288;2022-12-11T10:17:24;17.37;;;11.47;;
76714;SDS011;65644;44.990;20.288;2022-12-11T10:19:52;16.83;;;11.13;;
76714;SDS011;65644;44.990;20.288;2022-12-11T10:22:20;17.73;;;11.23;;
76714;SDS011;65644;44.990;20.288;2022-12-11T10:27:19;19.10;;;12.53;;
76714;SDS011;65644;44.990;20.288;2022-12-11T10:29:46;15.10;;;11.07;;
76714;SDS011;65644;44.990;20.288;2022-12-11T10:32:23;20.17;;;13.57;;
76714;SDS011;65644;44.990;20.288;2022-12-11T10:34:56;18.10;;;12.00;;
76714;SDS011;65644;44.990;20.288;2022-12-11T10:37:24;19.60;;;13.30;;
76714;SDS011;65644;44.990;20.288;2022-12-11T10:39:50;18.17;;;13.10;;
76714;SDS011;65644;44.990;20.288;2022-12-11T10:42:19;17.63;;;12.47;;
76714;SDS011;65644;44.990;20.288;2022-12-11T10:44:59;18.07;;;11.70;;
76714;SDS011;65644;44.990;20.288;2022-12-11T10:47:26;19.53;;;12.30;;
76714;SDS011;65644;44.990;20.288;2022-12-11T10:49:56;22.73;;;13.27;;
76714;SDS011;65644;44.990;20.288;2022-12-11T10:52:30;24.33;;;15.33;;
76714;SDS011;65644;44.990;20.288;2022-12-11T10:55:01;22.67;;;14.93;;
76714;SDS011;65644;44.990;20.288;2022-12-11T10:57:28;22.73;;;15.60;;
76714;SDS011;65644;44.990;20.288;2022-12-11T10:59:54;22.33;;;14.80;;
76714;SDS011;65644;44.990;20.288;2022-12-11T11:04:50;23.03;;;14.40;;
76714;SDS011;65644;44.990;20.288;2022-12-11T11:10:04;25.43;;;14.97;;
76714;SDS011;65644;44.990;20.288;2022-12-11T11:12:35;23.13;;;15.30;;
76714;SDS011;65644;44.990;20.288;2022-12-11T11:15:05;23.57;;;14.93;;
76714;SDS011;65644;44.990;20.288;2022-12-11T11:17:40;26.13;;;15.93;;
76714;SDS011;65644;44.990;20.288;2022-12-11T11:20:11;27.80;;;15.77;;
76714;SDS011;65644;44.990;20.288;2022-12-11T11:22:39;25.40;;;15.70;;
76714;SDS011;65644;44.990;20.288;2022-12-11T11:25:14;32.17;;;19.40;;
76714;SDS011;65644;44.990;20.288;2022-12-11T11:27:43;33.03;;;19.60;;
76714;SDS011;65644;44.990;20.288;2022-12-11T11:30:18;34.00;;;19.70;;
76714;SDS011;65644;44.990;20.288;2022-12-11T11:32:45;34.47;;;20.83;;
76714;SDS011;65644;44.990;20.288;2022-12-11T11:37:38;35.43;;;21.43;;
76714;SDS011;65644;44.990;20.288;2022-12-11T11:42:40;31.13;;;19.50;;
76714;SDS011;65644;44.990;20.288;2022-12-11T11:45:12;35.28;;;19.58;;
76714;SDS011;65644;44.990;20.288;2022-12-11T11:47:42;42.37;;;23.53;;
76714;SDS011;65644;44.990;20.288;2022-12-11T11:50:18;33.90;;;21.80;;
76714;SDS011;65644;44.990;20.288;2022-12-11T11:52:54;33.03;;;19.77;;
76714;SDS011;65644;44.990;20.288;2022-12-11T11:57:59;30.73;;;19.13;;
76714;SDS011;65644;44.990;20.288;2022-12-11T12:00:26;32.33;;;19.27;;
76714;SDS011;65644;44.990;20.288;2022-12-11T12:02:56;30.37;;;17.47;;
76714;SDS011;65644;44.990;20.288;2022-12-11T12:16:07;32.73;;;18.63;;
76714;SDS011;65644;44.990;20.288;2022-12-11T12:29:31;28.90;;;18.10;;
76714;SDS011;65644;44.990;20.288;2022-12-11T12:31:51;32.13;;;19.20;;
76714;SDS011;65644;44.990;20.288;2022-12-11T12:39:18;36.77;;;21.87;;
76714;SDS011;65644;44.990;20.288;2022-12-11T12:44:22;33.42;;;18.73;;
76714;SDS011;65644;44.990;20.288;2022-12-11T12:51:50;35.80;;;21.07;;
76714;SDS011;65644;44.990;20.288;2022-12-11T12:54:17;30.00;;;17.27;;
76714;SDS011;65644;44.990;20.288;2022-12-11T12:56:43;28.10;;;17.67;;
76714;SDS011;65644;44.990;20.288;2022-12-11T12:59:19;30.17;;;18.13;;
76714;SDS011;65644;44.990;20.288;2022-12-11T13:01:48;31.77;;;17.83;;
76714;SDS011;65644;44.990;20.288;2022-12-11T13:04:28;30.87;;;19.27;;
76714;SDS011;65644;44.990;20.288;2022-12-11T13:06:55;32.50;;;17.90;;
76714;SDS011;65644;44.990;20.288;2022-12-11T13:09:22;29.87;;;17.03;;
76714;SDS011;65644;44.990;20.288;2022-12-11T13:11:49;30.20;;;17.03;;
76714;SDS011;65644;44.990;20.288;2022-12-11T13:16:48;30.63;;;18.67;;
76714;SDS011;65644;44.990;20.288;2022-12-11T13:19:16;27.20;;;16.23;;
76714;SDS011;65644;44.990;20.288;2022-12-11T13:21:43;29.00;;;16.77;;
76714;SDS011;65644;44.990;20.288;2022-12-11T13:26:45;28.10;;;16.70;;
76714;SDS011;65644;44.990;20.288;2022-12-11T13:31:57;31.67;;;18.77;;
76714;SDS011;65644;44.990;20.288;2022-12-11T13:34:23;28.53;;;17.33;;
76714;SDS011;65644;44.990;20.288;2022-12-11T13:36:50;32.50;;;18.47;;
76714;SDS011;65644;44.990;20.288;2022-12-11T13:39:24;28.70;;;18.17;;
76714;SDS011;65644;44.990;20.288;2022-12-11T13:41:52;34.33;;;19.63;;
76714;SDS011;65644;44.990;20.288;2022-12-11T13:44:38;35.33;;;19.80;;
76714;SDS011;65644;44.990;20.288;2022-12-11T13:47:10;31.20;;;17.80;;
76714;SDS011;65644;44.990;20.288;2022-12-11T13:49:38;34.97;;;19.47;;
76714;SDS011;65644;44.990;20.288;2022-12-11T13:52:05;33.50;;;19.20;;
76714;SDS011;65644;44.990;20.288;2022-12-11T13:54:33;36.03;;;20.27;;
76714;SDS011;65644;44.990;20.288;2022-12-11T13:59:36;28.67;;;18.30;;
76714;SDS011;65644;44.990;20.288;2022-12-11T14:02:04;36.33;;;20.57;;
76714;SDS011;65644;44.990;20.288;2022-12-11T14:04:30;35.87;;;21.90;;
76714;SDS011;65644;44.990;20.288;2022-12-11T14:06:58;40.47;;;22.07;;
76714;SDS011;65644;44.990;20.288;2022-12-11T14:09:24;31.80;;;19.10;;
76714;SDS011;65644;44.990;20.288;2022-12-11T14:11:51;34.97;;;21.37;;
76714;SDS011;65644;44.990;20.288;2022-12-11T14:14:21;41.23;;;25.23;;
76714;SDS011;65644;44.990;20.288;2022-12-11T14:16:49;35.90;;;22.53;;
76714;SDS011;65644;44.990;20.288;2022-12-11T14:19:17;31.83;;;19.43;;
76714;SDS011;65644;44.990;20.288;2022-12-11T14:21:53;33.70;;;20.83;;
76714;SDS011;65644;44.990;20.288;2022-12-11T14:24:19;29.53;;;17.67;;
76714;SDS011;65644;44.990;20.288;2022-12-11T14:26:49;28.03;;;17.33;;
76714;SDS011;65644;44.990;20.288;2022-12-11T14:29:49;31.20;;;17.63;;
76714;SDS011;65644;44.990;20.288;2022-12-11T14:32:08;30.47;;;16.57;;
76714;SDS011;65644;44.990;20.288;2022-12-11T14:34:42;26.53;;;16.53;;
76714;SDS011;65644;44.990;20.288;2022-12-11T14:37:09;28.97;;;17.73;;
76714;SDS011;65644;44.990;20.288;2022-12-11T14:39:38;29.20;;;17.90;;
76714;SDS011;65644;44.990;20.288;2022-12-11T14:44:42;27.83;;;17.10;;
76714;SDS011;65644;44.990;20.288;2022-12-11T14:47:10;24.47;;;15.53;;
76714;SDS011;65644;44.990;20.288;2022-12-11T14:52:17;26.02;;;15.43;;
76714;SDS011;65644;44.990;20.288;2022-12-11T14:54:49;28.73;;;17.10;;
76714;SDS011;65644;44.990;20.288;2022-12-11T14:57:17;29.83;;;18.00;;
76714;SDS011;65644;44.990;20.288;2022-12-11T14:59:45;29.10;;;18.73;;
76714;SDS011;65644;44.990;20.288;2022-12-11T15:04:56;25.65;;;15.82;;
76714;SDS011;65644;44.990;20.288;2022-12-11T15:07:24;30.37;;;18.10;;
76714;SDS011;65644;44.990;20.288;2022-12-11T15:09:50;32.93;;;20.63;;
76714;SDS011;65644;44.990;20.288;2022-12-11T15:12:16;31.30;;;19.60;;
76714;SDS011;65644;44.990;20.288;2022-12-11T15:17:15;31.57;;;18.47;;
76714;SDS011;65644;44.990;20.288;2022-12-11T15:19:45;31.33;;;19.17;;
76714;SDS011;65644;44.990;20.288;2022-12-11T15:22:13;31.70;;;18.17;;
76714;SDS011;65644;44.990;20.288;2022-12-11T15:24:40;34.87;;;20.47;;
76714;SDS011;65644;44.990;20.288;2022-12-11T15:29:52;33.60;;;21.45;;
76714;SDS011;65644;44.990;20.288;2022-12-11T15:32:18;32.93;;;20.43;;
76714;SDS011;65644;44.990;20.288;2022-12-11T15:39:50;30.80;;;17.77;;
76714;SDS011;65644;44.990;20.288;2022-12-11T15:42:38;31.57;;;16.57;;
76714;SDS011;65644;44.990;20.288;2022-12-11T15:45:04;31.13;;;18.03;;
76714;SDS011;65644;44.990;20.288;2022-12-11T15:47:31;29.63;;;18.30;;
76714;SDS011;65644;44.990;20.288;2022-12-11T15:49:58;30.17;;;18.17;;
76714;SDS011;65644;44.990;20.288;2022-12-11T15:52:24;27.27;;;18.13;;
76714;SDS011;65644;44.990;20.288;2022-12-11T15:54:51;31.03;;;19.00;;
76714;SDS011;65644;44.990;20.288;2022-12-11T15:57:18;28.50;;;17.97;;
76714;SDS011;65644;44.990;20.288;2022-12-11T15:59:44;27.40;;;16.30;;
76714;SDS011;65644;44.990;20.288;2022-12-11T16:02:13;30.07;;;18.10;;
76714;SDS011;65644;44.990;20.288;2022-12-11T16:04:39;32.20;;;18.23;;
76714;SDS011;65644;44.990;20.288;2022-12-11T16:07:11;29.20;;;16.67;;
76714;SDS011;65644;44.990;20.288;2022-12-11T16:09:38;30.83;;;16.90;;
76714;SDS011;65644;44.990;20.288;2022-12-11T16:12:04;27.17;;;15.70;;
76714;SDS011;65644;44.990;20.288;2022-12-11T16:14:30;25.60;;;16.17;;
76714;SDS011;65644;44.990;20.288;2022-12-11T16:16:56;26.23;;;15.47;;
76714;SDS011;65644;44.990;20.288;2022-12-11T16:19:22;25.90;;;15.90;;
76714;SDS011;65644;44.990;20.288;2022-12-11T16:21:48;25.27;;;14.93;;
76714;SDS011;65644;44.990;20.288;2022-12-11T16:24:14;24.97;;;15.80;;
76714;SDS011;65644;44.990;20.288;2022-12-11T16:26:40;24.70;;;14.23;;